Ness City, KS (67560)

5:22 PM CDT on July 23, 2014 (GMT -0500)
Schlegel Farms (KKSNESSC2) Elev 2395 ft | 38.35 °N, 100.04 °W | Change Station

Current weather conditions updated 23 seconds ago

Overcast
Overcast
90.7 °F
Feels Like 95 °F
N
10.0
Wind Variable Wind from SSE
Gusts 21.0 mph

Tomorrow is forecast to be Much Warmer than today.

Today
High -- | Low -- °F
--% Chance of Precip.
Yesterday
High -- | Low -- °F
Precip. -- in
6:34 AM 8:57 PM
Waning Crescent, 8% visible
Pressure 30.15 in
Visibility 10.0 miles
Clouds Clear
Heat Index 95 °F
Dew Point 68 °F
Humidity 48%
Rainfall 0.00 in
Snow Depth Not available.
UV 5 out of 12
Pollen 5.70 out of 12
Air Quality Not available.
Flu Activity Not available.
METAR KHYS 232215Z AUTO 06016KT 10SM CLR 31/18 A3015 RMK AO1 WSHFT 54

More Conditions Fewer Conditions

Pressure 30.15 in
Visibility 10.0 miles
Clouds Clear
Heat Index 95 °F
Dew Point 68 °F
Humidity 48%
Rainfall 0.00 in
Snow Depth Not available.
UV 5 out of 12
Pollen 5.70 out of 12
Air Quality Not available.
Flu Activity Not available.
METAR KHYS 232215Z AUTO 06016KT 10SM CLR 31/18 A3015 RMK AO1 WSHFT 54

More Conditions Fewer Conditions

10-Day Weather Forecast

Almanac

Astronomy

Jul. 23, 2014 Rise Set
Actual Time 6:34 AM CDT 8:57 PM CDT
Civil Twilight 6:03 AM CDT 9:27 PM CDT
Nautical Twilight 5:26 AM CDT 10:05 PM CDT
Astronomical Twilight 4:45 AM CDT 10:46 PM CDT
Moon 3:54 AM CDT 6:28 PM CDT
Length of Visible Light 15h 24m
Length of Day
14h 23m
Tomorrow will be 1m 36s shorter.
Waning Crescent, 8% of the Moon is Illuminated
Today
Waning Crescent
Jul 26
New
Aug 3
First Quarter
Aug 10
Full
Aug 17
Last Quarter

Today's Extremes

State Highs State Lows

Community

WunderPhotos

Upload Photos

1,736,806 photos uploaded!

Nearby

Snow Depth

Station Depth Elevation
No new snow has been reported.

Earthquake Activity

City Distance Mag. Time & Date
Helena, Oklahoma 157 miles 3.2 8:41 AM CDT
2014-07-18
Cherokee, Oklahoma 153 miles 2.5 10:35 AM CDT
2014-07-17
Minimum magnitude displayed is 2.5.

Coastal Water Temperatures

Place Temperature
No Stations Reporting

Nearby Weather Stations

Station Location Temp. Heat Index Dew Point Humidity Wind Precip. Elev Updated Type
Schlegel Farms, Ness City, KS 90.7 °F 95 °F 68 °F 48% SSE  at  10.0 mph 0.00 in / hr 2395 ft 5:22 PM CDT Normal

Show More Stations Show Fewer Stations